Cooks, Michigan
Current Conditions -  °F | °C
As of 7:13 PM on Sunday 23 Nov 2014 (Local Time) from KISQ Reporting Station
Light Rain Light Rain  
Wind Chill: 37°   Ceiling: 300
Heat Index: 41°   Visibility: 0.5mi
Dew Point: 41°   Wind: 7mph
Humidity: 100%   Direction: 140°SE
Pressure: 29.46"   Gusts: NA
Location:  45.92°N, 86.48°W
Report Text: KISQ 240013Z AUTO 14006KT 1/2SM -RA OVC003 05/05 A2946 RMK AO2 P0001 T00520052
Loading
Personal Weather Stations






























Interactive Weather Map New forecast layout! Learn more

10-Day Weather Forecast

Advertisements
Track Severe Weather on mobile